Time;durP1;ratioP1;P1;durP2;ratioP2;P2;SDS_P1;SDS_P2;PMS_P1;PMS_P2;Temp;Humidity;BMP_temperature;BMP_pressure;BME280_temperature;BME280_humidity;BME280_pressure;Samples;Min_cycle;Max_cycle;Signal;HPM_P1;HPM_P2
2022/03/29 00:02:20;;;;;;;;;;;25.00;56.70;;;;;;4959765;29;1976;-35
2022/03/29 00:04:48;;;;;;;;;;;25.00;56.60;;;;;;4959446;29;1029;-35
2022/03/29 00:07:15;;;;;;;;;;;25.00;56.60;;;;;;4960085;29;893;-35
2022/03/29 00:09:42;;;;;;;;;;;25.00;56.60;;;;;;4959426;29;998;-35
2022/03/29 00:12:09;;;;;;;;;;;25.00;56.60;;;;;;4959855;29;1005;-35
2022/03/29 00:14:36;;;;;;;;;;;25.00;56.40;;;;;;4959500;29;955;-35
2022/03/29 00:17:03;;;;;;;;;;;25.00;56.50;;;;;;4959428;29;1027;-34
2022/03/29 00:19:29;;;;;;;;;;;25.00;56.60;;;;;;4959872;29;916;-34
2022/03/29 00:21:57;;;;;;;;;;;25.00;56.50;;;;;;4958368;29;2001;-35
2022/03/29 00:24:24;;;;;;;;;;;25.00;56.60;;;;;;4958394;29;996;-35
2022/03/29 00:26:51;;;;;;;;;;;25.00;56.40;;;;;;4958643;29;1020;-34
2022/03/29 00:29:18;;;;;;;;;;;25.00;56.30;;;;;;4959293;28;1003;-35
2022/03/29 00:31:44;;;;;;;;;;;25.00;56.50;;;;;;4959253;29;995;-35
2022/03/29 00:34:11;;;;;;;;;;;25.00;56.40;;;;;;4959891;29;944;-35
2022/03/29 00:36:38;;;;;;;;;;;25.00;56.60;;;;;;4960385;29;1080;-35
2022/03/29 00:39:06;;;;;;;;;;;25.00;56.50;;;;;;4959276;29;936;-35
2022/03/29 00:41:33;;;;;;;;;;;25.00;56.60;;;;;;4958951;29;998;-35
2022/03/29 00:43:59;;;;;;;;;;;25.00;56.40;;;;;;4959598;29;1910;-35
2022/03/29 00:46:26;;;;;;;;;;;25.00;56.60;;;;;;4959155;29;1007;-35
2022/03/29 00:48:53;;;;;;;;;;;25.00;56.70;;;;;;4959156;29;956;-34
2022/03/29 00:51:20;;;;;;;;;;;25.00;56.70;;;;;;4959325;29;990;-34
2022/03/29 00:53:47;;;;;;;;;;;25.00;56.80;;;;;;4959469;29;1046;-35
2022/03/29 00:56:14;;;;;;;;;;;25.00;56.70;;;;;;4959044;29;944;-34
2022/03/29 00:58:41;;;;;;;;;;;25.00;56.60;;;;;;4959214;29;978;-35
2022/03/29 01:01:09;;;;;;;;;;;25.00;56.50;;;;;;4959071;28;1304;-35
2022/03/29 01:03:36;;;;;;;;;;;25.00;56.40;;;;;;4959141;29;1989;-35
2022/03/29 01:06:03;;;;;;;;;;;25.00;56.50;;;;;;4959138;29;937;-35
2022/03/29 01:08:30;;;;;;;;;;;25.00;56.60;;;;;;4959197;29;970;-34
2022/03/29 01:10:57;;;;;;;;;;;25.00;56.40;;;;;;4959544;29;954;-34
2022/03/29 01:13:26;;;;;;;;;;;25.00;56.60;;;;;;4959293;29;1005;-34
2022/03/29 01:15:52;;;;;;;;;;;24.90;56.40;;;;;;4959287;29;951;-34
2022/03/29 01:18:19;;;;;;;;;;;25.00;56.40;;;;;;4959032;29;1019;-34
2022/03/29 01:20:48;;;;;;;;;;;25.00;56.30;;;;;;4958487;29;1022;-34
2022/03/29 01:23:16;;;;;;;;;;;25.00;56.40;;;;;;4958532;29;1906;-34
2022/03/29 01:25:44;;;;;;;;;;;25.00;56.30;;;;;;4958475;29;1042;-34
2022/03/29 01:28:11;;;;;;;;;;;25.00;56.40;;;;;;4958848;29;1028;-34
2022/03/29 01:30:38;;;;;;;;;;;24.90;56.40;;;;;;4959330;29;948;-34
2022/03/29 01:33:07;;;;;;;;;;;24.90;56.40;;;;;;4959918;29;1059;-35
2022/03/29 01:35:34;;;;;;;;;;;24.90;56.40;;;;;;4959992;29;934;-34
2022/03/29 01:38:01;;;;;;;;;;;24.90;56.30;;;;;;4959533;29;986;-34
2022/03/29 01:40:29;;;;;;;;;;;24.90;56.40;;;;;;4959877;28;1006;-34
2022/03/29 01:42:56;;;;;;;;;;;24.90;56.40;;;;;;4963985;29;2281;-34
2022/03/29 01:45:24;;;;;;;;;;;24.90;56.30;;;;;;4962887;29;1023;-34
2022/03/29 01:47:51;;;;;;;;;;;24.90;56.30;;;;;;4963404;29;971;-34
2022/03/29 01:50:18;;;;;;;;;;;24.90;56.30;;;;;;4962522;29;1005;-34
2022/03/29 01:52:46;;;;;;;;;;;24.90;56.30;;;;;;4963101;29;951;-35
2022/03/29 01:55:14;;;;;;;;;;;24.90;56.30;;;;;;4962992;29;968;-34
2022/03/29 01:57:42;;;;;;;;;;;24.90;56.20;;;;;;4963165;29;1047;-34
2022/03/29 02:02:55;;;;;;;;;;;24.90;56.30;;;;;;4962501;29;1989;-34
2022/03/29 02:05:22;;;;;;;;;;;24.80;56.10;;;;;;4962632;29;1019;-34
2022/03/29 02:07:48;;;;;;;;;;;24.80;56.20;;;;;;4961877;29;1011;-34
2022/03/29 02:10:16;;;;;;;;;;;24.80;56.10;;;;;;4962276;29;995;-34
2022/03/29 02:12:44;;;;;;;;;;;24.90;56.20;;;;;;4962003;29;1010;-34
2022/03/29 02:15:11;;;;;;;;;;;24.90;56.20;;;;;;4962249;29;968;-34
2022/03/29 02:17:37;;;;;;;;;;;24.90;56.30;;;;;;4962082;29;987;-34
2022/03/29 02:20:06;;;;;;;;;;;24.90;56.10;;;;;;4961857;29;898;-34
2022/03/29 02:22:32;;;;;;;;;;;24.90;55.80;;;;;;4962285;29;1981;-34
2022/03/29 02:24:59;;;;;;;;;;;24.90;56.00;;;;;;4961967;29;1006;-34
2022/03/29 02:27:26;;;;;;;;;;;24.90;56.00;;;;;;4962651;29;1011;-34
2022/03/29 02:29:54;;;;;;;;;;;24.80;55.70;;;;;;4962005;29;997;-34
2022/03/29 02:32:21;;;;;;;;;;;24.80;56.00;;;;;;4961991;29;1011;-34
2022/03/29 02:34:47;;;;;;;;;;;24.80;55.90;;;;;;4961075;29;996;-34
2022/03/29 02:37:14;;;;;;;;;;;24.80;56.00;;;;;;4960713;29;1029;-34
2022/03/29 02:42:45;;;;;;;;;;;24.80;55.70;;;;;;4961748;29;1973;-34
2022/03/29 02:45:17;;;;;;;;;;;24.80;55.90;;;;;;4961580;29;990;-34
2022/03/29 02:47:44;;;;;;;;;;;24.80;55.80;;;;;;4961854;29;1787;-35
2022/03/29 02:50:12;;;;;;;;;;;24.80;56.00;;;;;;4961467;29;1019;-35
2022/03/29 02:52:45;;;;;;;;;;;24.80;55.80;;;;;;4961753;28;986;-35
2022/03/29 02:55:12;;;;;;;;;;;24.80;55.70;;;;;;4962031;29;1007;-35
2022/03/29 02:57:39;;;;;;;;;;;24.80;56.20;;;;;;4962549;29;984;-35
2022/03/29 03:00:07;;;;;;;;;;;24.80;55.80;;;;;;4961493;28;1115;-35
2022/03/29 03:02:35;;;;;;;;;;;24.80;55.90;;;;;;4961642;29;1989;-35
2022/03/29 03:05:02;;;;;;;;;;;24.80;56.00;;;;;;4962101;29;1014;-34
2022/03/29 03:07:29;;;;;;;;;;;24.80;56.00;;;;;;4961122;29;1021;-35
2022/03/29 03:09:56;;;;;;;;;;;24.70;56.00;;;;;;4961790;29;1063;-35
2022/03/29 03:12:23;;;;;;;;;;;24.80;56.00;;;;;;4961980;29;1076;-35
2022/03/29 03:14:49;;;;;;;;;;;24.80;55.80;;;;;;4961057;29;951;-35
2022/03/29 03:17:16;;;;;;;;;;;24.80;56.00;;;;;;4961070;29;1027;-35
2022/03/29 03:19:44;;;;;;;;;;;24.80;56.00;;;;;;4960263;29;947;-35
2022/03/29 03:22:11;;;;;;;;;;;24.80;56.20;;;;;;4959563;29;1030;-35
2022/03/29 03:24:38;;;;;;;;;;;24.80;56.20;;;;;;4959876;29;2041;-35
2022/03/29 03:27:06;;;;;;;;;;;24.70;56.30;;;;;;4960041;29;1028;-34
2022/03/29 03:29:34;;;;;;;;;;;24.80;56.30;;;;;;4960019;29;932;-35
2022/03/29 03:32:01;;;;;;;;;;;24.80;56.30;;;;;;4959416;29;975;-35
2022/03/29 03:34:27;;;;;;;;;;;24.80;56.40;;;;;;4959799;29;1014;-35
2022/03/29 03:36:57;;;;;;;;;;;24.70;56.10;;;;;;4960358;29;1034;-35
2022/03/29 03:39:24;;;;;;;;;;;24.80;56.20;;;;;;4960221;29;959;-35
2022/03/29 03:41:51;;;;;;;;;;;24.70;56.20;;;;;;4959855;29;966;-35
2022/03/29 03:44:17;;;;;;;;;;;24.70;56.30;;;;;;4960233;29;1906;-35
2022/03/29 03:46:44;;;;;;;;;;;24.70;56.20;;;;;;4958851;29;886;-35
2022/03/29 03:49:11;;;;;;;;;;;24.70;56.40;;;;;;4959345;29;952;-35
2022/03/29 03:51:38;;;;;;;;;;;24.70;56.30;;;;;;4959786;29;1019;-35
2022/03/29 03:54:06;;;;;;;;;;;24.70;56.10;;;;;;4960367;29;948;-35
2022/03/29 03:56:33;;;;;;;;;;;24.70;56.20;;;;;;4960481;29;1775;-35
2022/03/29 03:58:59;;;;;;;;;;;24.70;56.20;;;;;;4959720;29;1012;-35
2022/03/29 04:01:27;;;;;;;;;;;24.70;56.10;;;;;;4960766;28;1145;-35
2022/03/29 04:03:53;;;;;;;;;;;24.70;56.00;;;;;;4957735;28;1899;-35
2022/03/29 04:06:21;;;;;;;;;;;24.70;56.10;;;;;;4958676;29;986;-35
2022/03/29 04:08:48;;;;;;;;;;;24.70;55.90;;;;;;4959149;29;989;-35
2022/03/29 04:11:16;;;;;;;;;;;24.70;56.20;;;;;;4960241;29;945;-35
2022/03/29 04:13:42;;;;;;;;;;;24.70;56.10;;;;;;4960176;29;1022;-35
2022/03/29 04:16:09;;;;;;;;;;;24.70;56.10;;;;;;4959326;29;947;-35
2022/03/29 04:18:36;;;;;;;;;;;24.70;56.30;;;;;;4960413;29;975;-35
2022/03/29 04:21:04;;;;;;;;;;;24.70;56.30;;;;;;4958911;29;999;-35
2022/03/29 04:23:31;;;;;;;;;;;24.60;56.20;;;;;;4959246;29;1898;-35
2022/03/29 04:25:58;;;;;;;;;;;24.70;56.30;;;;;;4959281;29;960;-35
2022/03/29 04:28:26;;;;;;;;;;;24.70;56.20;;;;;;4959487;29;875;-35
2022/03/29 04:30:55;;;;;;;;;;;24.70;56.30;;;;;;4959406;29;975;-35
2022/03/29 04:33:21;;;;;;;;;;;24.70;56.00;;;;;;4959652;29;1115;-35
2022/03/29 04:35:48;;;;;;;;;;;24.60;56.20;;;;;;4959219;29;952;-35
2022/03/29 04:38:15;;;;;;;;;;;24.70;56.30;;;;;;4958449;29;983;-35
2022/03/29 04:40:42;;;;;;;;;;;24.70;56.30;;;;;;4957649;29;980;-35
2022/03/29 04:43:09;;;;;;;;;;;24.60;56.10;;;;;;4959436;29;1910;-34
2022/03/29 04:45:37;;;;;;;;;;;24.60;56.20;;;;;;4958432;29;955;-37
2022/03/29 04:48:04;;;;;;;;;;;24.60;56.30;;;;;;4959378;29;1017;-35
2022/03/29 04:50:30;;;;;;;;;;;24.60;56.20;;;;;;4958873;29;1775;-35
2022/03/29 04:52:57;;;;;;;;;;;24.60;55.90;;;;;;4958858;29;986;-35
2022/03/29 04:55:24;;;;;;;;;;;24.60;56.20;;;;;;4958453;29;982;-35
2022/03/29 04:57:51;;;;;;;;;;;24.70;56.10;;;;;;4958072;29;1051;-35
2022/03/29 05:00:20;;;;;;;;;;;24.60;56.10;;;;;;4957467;28;1327;-35
2022/03/29 05:02:49;;;;;;;;;;;24.60;56.10;;;;;;4958029;29;1006;-35
2022/03/29 05:05:16;;;;;;;;;;;24.60;56.10;;;;;;4957456;29;1997;-35
2022/03/29 05:07:43;;;;;;;;;;;24.60;56.30;;;;;;4957617;29;1017;-35
2022/03/29 05:10:11;;;;;;;;;;;24.60;57.40;;;;;;4958005;29;979;-35
2022/03/29 05:12:41;;;;;;;;;;;24.60;56.30;;;;;;4957088;29;1025;-35
2022/03/29 05:15:09;;;;;;;;;;;24.60;56.00;;;;;;4957746;28;975;-35
2022/03/29 05:17:36;;;;;;;;;;;24.60;56.10;;;;;;4960720;29;1033;-35
2022/03/29 05:20:05;;;;;;;;;;;24.60;56.20;;;;;;4960304;29;1050;-35
2022/03/29 05:22:32;;;;;;;;;;;24.60;56.10;;;;;;4958742;29;1009;-35
2022/03/29 05:24:59;;;;;;;;;;;24.60;56.30;;;;;;4960517;29;1976;-35
2022/03/29 05:27:26;;;;;;;;;;;24.60;56.30;;;;;;4960546;29;1022;-35
2022/03/29 05:29:53;;;;;;;;;;;24.60;56.10;;;;;;4959570;29;963;-35
2022/03/29 05:32:19;;;;;;;;;;;24.60;56.20;;;;;;4959776;29;1012;-35
2022/03/29 05:34:46;;;;;;;;;;;24.60;56.30;;;;;;4960504;29;1014;-34
2022/03/29 05:37:15;;;;;;;;;;;24.60;56.20;;;;;;4960180;29;1012;-34
2022/03/29 05:39:43;;;;;;;;;;;24.60;56.20;;;;;;4959663;29;1022;-34
2022/03/29 05:42:10;;;;;;;;;;;24.60;56.20;;;;;;4959319;29;982;-35
2022/03/29 05:44:38;;;;;;;;;;;24.60;56.10;;;;;;4960311;29;1907;-34
2022/03/29 05:49:50;;;;;;;;;;;24.60;56.30;;;;;;4960371;29;667;-34
2022/03/29 05:52:18;;;;;;;;;;;24.60;56.30;;;;;;4960766;29;867;-34
2022/03/29 05:54:45;;;;;;;;;;;24.60;56.30;;;;;;4960900;29;982;-43
2022/03/29 05:57:11;;;;;;;;;;;24.80;56.20;;;;;;4961050;29;955;-45
2022/03/29 05:59:38;;;;;;;;;;;24.70;56.00;;;;;;4960572;29;1013;-45
2022/03/29 06:02:05;;;;;;;;;;;24.70;55.90;;;;;;4960721;28;1157;-45
2022/03/29 06:04:32;;;;;;;;;;;24.70;56.10;;;;;;4960787;29;1907;-45
2022/03/29 06:06:59;;;;;;;;;;;24.70;56.10;;;;;;4960510;29;1011;-45
2022/03/29 06:09:27;;;;;;;;;;;24.80;56.20;;;;;;4960402;29;1036;-45
2022/03/29 06:11:54;;;;;;;;;;;24.80;56.30;;;;;;4959969;29;1017;-43
2022/03/29 06:14:21;;;;;;;;;;;24.80;56.30;;;;;;4959961;29;974;-45
2022/03/29 06:16:48;;;;;;;;;;;24.70;56.20;;;;;;4960603;29;975;-41
2022/03/29 06:19:15;;;;;;;;;;;24.80;56.60;;;;;;4959900;29;986;-42
2022/03/29 06:21:42;;;;;;;;;;;24.70;56.60;;;;;;4960388;29;1509;-41
2022/03/29 06:24:09;;;;;;;;;;;24.70;56.60;;;;;;4958922;29;1981;-43
2022/03/29 06:26:39;;;;;;;;;;;24.70;56.80;;;;;;4958827;28;975;-44
2022/03/29 06:29:05;;;;;;;;;;;24.80;56.50;;;;;;4959847;29;948;-44
2022/03/29 06:31:32;;;;;;;;;;;24.80;56.60;;;;;;4958282;29;998;-44
2022/03/29 06:33:59;;;;;;;;;;;24.80;56.90;;;;;;4959511;29;967;-44
2022/03/29 06:36:26;;;;;;;;;;;24.70;56.90;;;;;;4957196;29;885;-43
2022/03/29 06:38:53;;;;;;;;;;;24.70;56.70;;;;;;4957514;29;990;-43
2022/03/29 06:41:20;;;;;;;;;;;24.70;57.00;;;;;;4957979;29;941;-44
2022/03/29 06:43:48;;;;;;;;;;;24.70;57.00;;;;;;4957767;29;1976;-43
2022/03/29 06:46:16;;;;;;;;;;;24.70;57.00;;;;;;4957929;29;1058;-43
2022/03/29 06:48:44;;;;;;;;;;;24.70;56.80;;;;;;4958886;29;956;-43
2022/03/29 06:51:12;;;;;;;;;;;24.70;56.70;;;;;;4959828;29;1404;-43
2022/03/29 06:53:39;;;;;;;;;;;24.70;56.50;;;;;;4959275;29;927;-44
2022/03/29 06:56:07;;;;;;;;;;;24.80;56.70;;;;;;4959507;29;1019;-43
2022/03/29 06:58:33;;;;;;;;;;;24.70;56.90;;;;;;4958258;29;1006;-43
2022/03/29 07:01:02;;;;;;;;;;;24.70;56.80;;;;;;4958877;28;1242;-43
2022/03/29 07:03:29;;;;;;;;;;;24.70;56.70;;;;;;4958482;29;951;-43
2022/03/29 07:05:58;;;;;;;;;;;24.70;56.70;;;;;;4957881;29;1984;-43
2022/03/29 07:08:25;;;;;;;;;;;24.70;56.80;;;;;;4958038;29;991;-43
2022/03/29 07:13:37;;;;;;;;;;;24.70;57.80;;;;;;4958325;29;703;-43
2022/03/29 07:16:06;;;;;;;;;;;24.70;56.60;;;;;;4957940;29;981;-44
2022/03/29 07:18:33;;;;;;;;;;;24.70;56.70;;;;;;4958231;29;967;-43
2022/03/29 07:21:00;;;;;;;;;;;24.70;56.80;;;;;;4956721;29;864;-43
2022/03/29 07:23:29;;;;;;;;;;;24.70;56.80;;;;;;4958885;29;972;-44
2022/03/29 07:25:56;;;;;;;;;;;24.70;56.70;;;;;;4957431;29;1977;-43
2022/03/29 07:28:23;;;;;;;;;;;24.70;56.70;;;;;;4957788;29;999;-43
2022/03/29 07:30:50;;;;;;;;;;;24.70;56.50;;;;;;4957171;29;1092;-43
2022/03/29 07:33:18;;;;;;;;;;;24.70;56.60;;;;;;4957851;29;1129;-43
2022/03/29 07:35:45;;;;;;;;;;;24.70;56.70;;;;;;4957331;29;939;-44
2022/03/29 07:38:12;;;;;;;;;;;24.70;56.40;;;;;;4957390;28;1018;-43
2022/03/29 07:40:41;;;;;;;;;;;24.70;56.80;;;;;;4956269;29;1033;-43
2022/03/29 07:43:09;;;;;;;;;;;24.70;56.70;;;;;;4958898;29;993;-43
2022/03/29 07:45:36;;;;;;;;;;;24.70;56.50;;;;;;4957675;29;1902;-44
2022/03/29 07:48:03;;;;;;;;;;;24.70;56.50;;;;;;4956018;29;931;-44
2022/03/29 07:50:33;;;;;;;;;;;24.70;56.60;;;;;;4957170;29;932;-44
2022/03/29 07:53:00;;;;;;;;;;;24.70;56.50;;;;;;4957491;29;1023;-44
2022/03/29 07:55:27;;;;;;;;;;;24.70;56.70;;;;;;4958163;29;765;-44
2022/03/29 07:57:54;;;;;;;;;;;24.70;56.80;;;;;;4957250;29;987;-45
2022/03/29 08:00:33;;;;;;;;;;;24.70;56.60;;;;;;4957217;28;1129;-45
2022/03/29 08:03:01;;;;;;;;;;;24.70;56.90;;;;;;4957590;29;1038;-44
2022/03/29 08:05:29;;;;;;;;;;;24.70;57.00;;;;;;4956955;29;1984;-44
2022/03/29 08:07:58;;;;;;;;;;;24.70;56.80;;;;;;4955390;29;1082;-44
2022/03/29 08:10:25;;;;;;;;;;;24.70;57.00;;;;;;4956104;29;952;-44
2022/03/29 08:12:52;;;;;;;;;;;24.70;57.00;;;;;;4956529;29;999;-44
2022/03/29 08:15:19;;;;;;;;;;;24.70;56.80;;;;;;4957300;29;982;-43
2022/03/29 08:17:45;;;;;;;;;;;24.70;57.00;;;;;;4958074;29;1028;-44
2022/03/29 08:20:12;;;;;;;;;;;24.70;58.10;;;;;;4956760;29;996;-44
2022/03/29 08:22:44;;;;;;;;;;;24.70;56.90;;;;;;4957064;29;945;-44
2022/03/29 08:25:13;;;;;;;;;;;24.70;57.00;;;;;;4957276;29;1979;-43
2022/03/29 08:27:40;;;;;;;;;;;24.60;57.00;;;;;;4957452;29;1002;-44
2022/03/29 08:30:07;;;;;;;;;;;24.70;56.80;;;;;;4957494;29;1003;-45
2022/03/29 08:32:35;;;;;;;;;;;24.70;56.80;;;;;;4957236;29;923;-44
2022/03/29 08:35:02;;;;;;;;;;;24.70;56.80;;;;;;4957360;29;998;-44
2022/03/29 08:37:28;;;;;;;;;;;24.70;56.80;;;;;;4957681;29;1029;-44
2022/03/29 08:39:55;;;;;;;;;;;24.70;56.80;;;;;;4956643;29;1007;-44
2022/03/29 08:42:24;;;;;;;;;;;24.70;57.00;;;;;;4956016;29;995;-44
2022/03/29 08:44:51;;;;;;;;;;;24.70;56.70;;;;;;4956230;29;1910;-44
2022/03/29 08:47:18;;;;;;;;;;;24.70;56.80;;;;;;4956573;29;978;-44
2022/03/29 08:49:48;;;;;;;;;;;24.70;56.70;;;;;;4955897;28;979;-44
2022/03/29 08:52:17;;;;;;;;;;;24.70;56.50;;;;;;4955954;29;1002;-44
2022/03/29 08:54:43;;;;;;;;;;;24.70;56.80;;;;;;4956566;29;990;-44
2022/03/29 08:57:11;;;;;;;;;;;24.70;56.50;;;;;;4956232;29;986;-44
2022/03/29 08:59:40;;;;;;;;;;;24.70;56.50;;;;;;4954714;29;948;-44
2022/03/29 09:02:10;;;;;;;;;;;24.70;56.70;;;;;;4955237;28;1035;-44
2022/03/29 09:04:37;;;;;;;;;;;24.80;56.40;;;;;;4955184;29;1914;-44
2022/03/29 09:07:04;;;;;;;;;;;24.80;56.50;;;;;;4955861;29;1014;-44
2022/03/29 09:09:31;;;;;;;;;;;24.80;56.60;;;;;;4955064;29;1362;-45
2022/03/29 09:11:59;;;;;;;;;;;24.80;56.70;;;;;;4954929;29;990;-44
2022/03/29 09:14:28;;;;;;;;;;;24.80;56.50;;;;;;4954504;29;943;-44
2022/03/29 09:16:56;;;;;;;;;;;24.80;56.40;;;;;;4954175;29;1213;-44
2022/03/29 09:19:25;;;;;;;;;;;24.80;56.40;;;;;;4955158;29;979;-44
2022/03/29 09:21:53;;;;;;;;;;;24.80;56.20;;;;;;4954144;29;1004;-44
2022/03/29 09:24:21;;;;;;;;;;;24.70;56.30;;;;;;4955610;29;883;-44
2022/03/29 09:26:49;;;;;;;;;;;24.80;56.30;;;;;;4955071;29;1973;-44
2022/03/29 09:29:17;;;;;;;;;;;24.70;56.10;;;;;;4954674;29;947;-45
2022/03/29 09:31:44;;;;;;;;;;;24.80;56.30;;;;;;4953624;29;1033;-44
2022/03/29 09:34:14;;;;;;;;;;;24.80;56.30;;;;;;4955083;29;1017;-44
2022/03/29 09:36:42;;;;;;;;;;;24.80;56.10;;;;;;4954435;29;1022;-45
2022/03/29 09:39:08;;;;;;;;;;;24.80;56.00;;;;;;4954841;29;914;-43
2022/03/29 09:41:37;;;;;;;;;;;24.70;56.00;;;;;;4954328;29;1046;-45
2022/03/29 09:44:06;;;;;;;;;;;24.80;55.80;;;;;;4954505;29;891;-44
2022/03/29 09:46:53;;;;;;;;;;;24.80;55.90;;;;;;4954164;29;1902;-44
2022/03/29 09:49:21;;;;;;;;;;;24.80;55.80;;;;;;4952890;29;944;-44
2022/03/29 09:51:48;;;;;;;;;;;24.80;55.90;;;;;;4955265;29;902;-44
2022/03/29 09:54:15;;;;;;;;;;;24.80;55.80;;;;;;4954507;29;1037;-44
2022/03/29 09:56:50;;;;;;;;;;;24.80;55.60;;;;;;4954153;29;1348;-45
2022/03/29 09:59:18;;;;;;;;;;;24.80;55.80;;;;;;4954937;29;963;-44
2022/03/29 10:01:49;;;;;;;;;;;24.80;55.50;;;;;;4954250;28;1093;-44
2022/03/29 10:04:16;;;;;;;;;;;24.80;55.50;;;;;;4957716;29;998;-44
2022/03/29 10:06:45;;;;;;;;;;;24.80;55.70;;;;;;4958358;29;1902;-44
2022/03/29 10:09:29;;;;;;;;;;;24.80;55.50;;;;;;4958502;29;986;-44
2022/03/29 10:11:57;;;;;;;;;;;24.80;55.60;;;;;;4957230;29;978;-44
2022/03/29 10:14:25;;;;;;;;;;;24.80;55.50;;;;;;4956528;29;948;-44
2022/03/29 10:16:52;;;;;;;;;;;24.80;55.40;;;;;;4956886;29;1559;-45
2022/03/29 10:19:20;;;;;;;;;;;24.80;55.60;;;;;;4957428;29;923;-44
2022/03/29 10:21:48;;;;;;;;;;;24.80;55.60;;;;;;4958186;29;903;-45
2022/03/29 10:24:16;;;;;;;;;;;24.80;55.20;;;;;;4958357;29;1017;-44
2022/03/29 10:26:44;;;;;;;;;;;24.80;55.50;;;;;;4958564;29;1979;-44
2022/03/29 10:29:11;;;;;;;;;;;24.80;55.50;;;;;;4957677;29;896;-44
2022/03/29 10:31:39;;;;;;;;;;;24.80;55.40;;;;;;4957434;29;1033;-44
2022/03/29 10:34:13;;;;;;;;;;;24.80;55.50;;;;;;4958274;29;1005;-44
2022/03/29 10:36:58;;;;;;;;;;;24.80;55.30;;;;;;4956521;29;1007;-44
2022/03/29 10:39:38;;;;;;;;;;;24.80;55.30;;;;;;4957865;29;982;-44
2022/03/29 10:42:23;;;;;;;;;;;24.80;55.60;;;;;;4957795;29;955;-44
2022/03/29 10:44:58;;;;;;;;;;;24.80;55.60;;;;;;4957113;29;1910;-44
2022/03/29 10:47:28;;;;;;;;;;;24.80;55.40;;;;;;4957344;29;998;-44
2022/03/29 10:49:55;;;;;;;;;;;24.80;55.30;;;;;;4956096;29;970;-45
2022/03/29 10:52:37;;;;;;;;;;;24.80;55.50;;;;;;4952871;29;986;-44
2022/03/29 10:55:22;;;;;;;;;;;24.80;55.60;;;;;;4956253;29;894;-44
2022/03/29 10:58:07;;;;;;;;;;;24.80;55.30;;;;;;4957409;29;1006;-46
2022/03/29 11:00:34;;;;;;;;;;;24.80;55.20;;;;;;4962249;28;1036;-45
2022/03/29 11:03:08;;;;;;;;;;;24.80;55.40;;;;;;4977150;28;988;-45
2022/03/29 11:05:55;;;;;;;;;;;24.80;55.30;;;;;;4976374;28;1985;-45
2022/03/29 11:08:22;;;;;;;;;;;24.90;55.60;;;;;;4977576;28;1088;-45
2022/03/29 11:10:49;;;;;;;;;;;24.90;55.40;;;;;;4976095;28;1002;-45
2022/03/29 11:13:26;;;;;;;;;;;24.90;55.60;;;;;;4976763;28;1115;-45
2022/03/29 11:15:53;;;;;;;;;;;24.80;55.20;;;;;;4976222;28;987;-45
2022/03/29 11:18:47;;;;;;;;;;;24.90;55.20;;;;;;4976754;28;1003;-45
2022/03/29 11:21:28;;;;;;;;;;;24.90;55.20;;;;;;4976221;28;1002;-45
2022/03/29 11:23:58;;;;;;;;;;;24.90;55.50;;;;;;4976791;28;1013;-46
2022/03/29 11:26:25;;;;;;;;;;;24.90;55.50;;;;;;4976628;28;1902;-46
2022/03/29 11:28:54;;;;;;;;;;;24.90;55.60;;;;;;4977757;28;870;-45
2022/03/29 11:31:21;;;;;;;;;;;24.90;55.60;;;;;;4975404;28;993;-45
2022/03/29 11:33:49;;;;;;;;;;;24.90;55.30;;;;;;4974314;28;1053;-44
2022/03/29 11:36:16;;;;;;;;;;;24.90;55.70;;;;;;4974405;28;926;-45
2022/03/29 11:38:44;;;;;;;;;;;24.90;55.60;;;;;;4974748;28;1010;-44
2022/03/29 11:41:20;;;;;;;;;;;24.90;55.40;;;;;;4973637;28;1024;-45
2022/03/29 11:43:51;;;;;;;;;;;24.90;55.60;;;;;;4972866;28;1002;-45
2022/03/29 11:46:19;;;;;;;;;;;24.90;55.50;;;;;;4974742;28;1971;-45
2022/03/29 11:48:48;;;;;;;;;;;24.90;55.40;;;;;;4975575;28;998;-46
2022/03/29 11:51:15;;;;;;;;;;;24.90;55.40;;;;;;4975244;28;1012;-45
2022/03/29 11:53:42;;;;;;;;;;;24.90;55.40;;;;;;4976318;28;959;-45
2022/03/29 11:56:10;;;;;;;;;;;24.90;56.30;;;;;;4975997;28;971;-44
2022/03/29 11:58:37;;;;;;;;;;;25.00;55.40;;;;;;4974432;28;932;-45
2022/03/29 12:01:05;;;;;;;;;;;25.00;55.50;;;;;;4976326;28;1083;-44
2022/03/29 12:03:34;;;;;;;;;;;25.00;55.30;;;;;;4977179;28;978;-45
2022/03/29 12:06:12;;;;;;;;;;;25.00;55.40;;;;;;4976817;28;1976;-46
2022/03/29 12:08:46;;;;;;;;;;;25.00;55.20;;;;;;4975902;28;923;-44
2022/03/29 12:11:13;;;;;;;;;;;25.00;55.20;;;;;;4976283;28;1027;-45
2022/03/29 12:13:40;;;;;;;;;;;25.00;55.40;;;;;;4976323;28;942;-45
2022/03/29 12:16:17;;;;;;;;;;;25.00;55.40;;;;;;4975378;28;1002;-45
2022/03/29 12:18:45;;;;;;;;;;;25.00;55.20;;;;;;4976498;28;887;-45
2022/03/29 12:21:13;;;;;;;;;;;25.00;55.50;;;;;;4975522;28;1050;-45
2022/03/29 12:23:41;;;;;;;;;;;25.00;55.60;;;;;;4975552;28;974;-45
2022/03/29 12:26:08;;;;;;;;;;;25.00;55.40;;;;;;4972360;28;1906;-45
2022/03/29 12:28:36;;;;;;;;;;;25.00;55.50;;;;;;4973918;28;962;-46
2022/03/29 12:31:03;;;;;;;;;;;25.00;55.40;;;;;;4972842;28;992;-46
2022/03/29 12:33:33;;;;;;;;;;;25.00;55.30;;;;;;4974615;28;994;-45
2022/03/29 12:36:05;;;;;;;;;;;25.00;55.30;;;;;;4972914;28;949;-45
2022/03/29 12:38:42;;;;;;;;;;;25.00;55.00;;;;;;4974171;28;1904;-45
2022/03/29 12:41:11;;;;;;;;;;;25.00;55.20;;;;;;4974601;28;944;-44
2022/03/29 12:43:38;;;;;;;;;;;25.00;55.30;;;;;;4975383;28;951;-45
2022/03/29 12:46:07;;;;;;;;;;;25.10;55.20;;;;;;4974912;28;1985;-45
2022/03/29 12:48:34;;;;;;;;;;;25.00;55.10;;;;;;4974774;28;1023;-44
2022/03/29 12:51:05;;;;;;;;;;;25.10;55.20;;;;;;4974314;28;926;-44
2022/03/29 12:53:33;;;;;;;;;;;25.00;55.00;;;;;;4975456;28;982;-44
2022/03/29 12:56:00;;;;;;;;;;;25.10;55.20;;;;;;4975802;28;986;-44
2022/03/29 12:58:31;;;;;;;;;;;25.00;55.10;;;;;;4975018;28;974;-43
2022/03/29 13:00:58;;;;;;;;;;;25.00;54.80;;;;;;4973840;28;1051;-43
2022/03/29 13:03:25;;;;;;;;;;;25.00;55.10;;;;;;4974544;28;1026;-43
2022/03/29 13:05:52;;;;;;;;;;;25.00;55.00;;;;;;4975372;28;1910;-44
2022/03/29 13:08:22;;;;;;;;;;;25.00;54.90;;;;;;4975171;28;1117;-43
2022/03/29 13:10:50;;;;;;;;;;;25.00;54.80;;;;;;4974946;28;940;-43
2022/03/29 13:13:19;;;;;;;;;;;25.00;55.00;;;;;;4975310;28;995;-43
2022/03/29 13:15:50;;;;;;;;;;;25.00;55.00;;;;;;4975216;28;1238;-43
2022/03/29 13:18:22;;;;;;;;;;;25.00;54.80;;;;;;4976427;28;995;-44
2022/03/29 13:20:49;;;;;;;;;;;25.10;55.00;;;;;;4975402;28;993;-45
2022/03/29 13:23:28;;;;;;;;;;;25.10;55.20;;;;;;4975998;28;997;-44
2022/03/29 13:25:56;;;;;;;;;;;25.10;55.20;;;;;;4976690;28;1903;-45
2022/03/29 13:28:24;;;;;;;;;;;25.10;55.10;;;;;;4975998;28;862;-43
2022/03/29 13:30:50;;;;;;;;;;;25.10;55.00;;;;;;4975782;28;895;-43
2022/03/29 13:33:17;;;;;;;;;;;25.10;55.00;;;;;;4975893;28;1023;-43
2022/03/29 13:35:44;;;;;;;;;;;25.10;55.10;;;;;;4975634;28;1033;-43
2022/03/29 13:38:11;;;;;;;;;;;25.10;55.10;;;;;;4979701;28;1014;-43
2022/03/29 13:40:37;;;;;;;;;;;25.10;55.20;;;;;;4979910;28;982;-43
2022/03/29 13:43:06;;;;;;;;;;;25.10;55.10;;;;;;4978752;28;1006;-43
2022/03/29 13:45:32;;;;;;;;;;;25.10;55.00;;;;;;4978743;28;1030;-43
2022/03/29 13:48:01;;;;;;;;;;;25.10;55.10;;;;;;4979473;28;1903;-43
2022/03/29 13:50:28;;;;;;;;;;;25.10;55.10;;;;;;4979883;28;993;-43
2022/03/29 13:52:55;;;;;;;;;;;25.10;55.10;;;;;;4981243;28;951;-43
2022/03/29 13:55:22;;;;;;;;;;;25.10;55.10;;;;;;4979634;28;936;-43
2022/03/29 13:57:49;;;;;;;;;;;25.10;55.10;;;;;;4979330;28;1017;-43
2022/03/29 14:00:18;;;;;;;;;;;25.10;55.00;;;;;;4976209;28;1067;-45
2022/03/29 14:02:44;;;;;;;;;;;25.10;55.10;;;;;;4973291;28;1712;-43
2022/03/29 14:05:11;;;;;;;;;;;25.10;55.10;;;;;;4959491;29;1006;-43
2022/03/29 14:07:38;;;;;;;;;;;25.10;55.00;;;;;;4959521;29;1902;-43
2022/03/29 14:10:05;;;;;;;;;;;25.10;55.10;;;;;;4959755;29;1493;-42
2022/03/29 14:12:32;;;;;;;;;;;25.20;55.10;;;;;;4959631;29;995;-43
2022/03/29 14:14:58;;;;;;;;;;;25.10;55.00;;;;;;4958392;29;971;-43
2022/03/29 14:17:27;;;;;;;;;;;25.10;55.10;;;;;;4959522;29;1037;-42
2022/03/29 14:19:53;;;;;;;;;;;25.20;55.10;;;;;;4959908;29;1032;-45
2022/03/29 14:22:20;;;;;;;;;;;25.20;55.10;;;;;;4959679;29;1009;-43
2022/03/29 14:24:47;;;;;;;;;;;25.20;55.10;;;;;;4961049;29;947;-43
2022/03/29 14:27:14;;;;;;;;;;;25.20;55.00;;;;;;4959861;29;2005;-44
2022/03/29 14:29:42;;;;;;;;;;;25.20;54.80;;;;;;4964917;28;1668;-44
2022/03/29 14:32:10;;;;;;;;;;;25.20;54.70;;;;;;4978748;28;985;-44
2022/03/29 14:34:40;;;;;;;;;;;25.20;54.80;;;;;;4980280;28;1422;-44
2022/03/29 14:37:08;;;;;;;;;;;25.30;54.70;;;;;;4965482;28;1676;-43
2022/03/29 14:39:35;;;;;;;;;;;25.30;54.90;;;;;;4941567;29;990;-43
2022/03/29 14:42:03;;;;;;;;;;;25.30;54.90;;;;;;4941023;29;1038;-43
2022/03/29 14:44:29;;;;;;;;;;;25.30;54.60;;;;;;4939745;29;986;-43
2022/03/29 14:46:57;;;;;;;;;;;25.30;54.90;;;;;;4939572;29;1973;-46
2022/03/29 14:49:26;;;;;;;;;;;25.20;54.80;;;;;;4939142;29;998;-44
2022/03/29 14:51:55;;;;;;;;;;;25.20;54.70;;;;;;4939426;29;992;-44
2022/03/29 14:54:21;;;;;;;;;;;25.30;54.90;;;;;;4939492;29;1038;-44